Terminal Aerodrome Forecast
Issued by NWS

Home | Current Version | Previous Version | Text Only | Print | Product List | Glossary On
Versions: 1 2 3 4 5 6 7 8 9 10 11 12 13 14
000
FTUS43 KILX 291747
TAFDEC
TAF
KDEC 291747Z 2918/3018 19012G18KT P6SM SCT035 BKN050
     FM292200 22012KT P6SM VCTS BKN050CB
     FM300600 22005KT P6SM -SHRA VCTS OVC035CB
     FM301600 24005KT P6SM VCSH OVC015=

USA.gov is the U.S. government's official web portal to all federal, state and local government web resources and services.